Time;durP1;ratioP1;P1;durP2;ratioP2;P2;SDS_P1;SDS_P2;PMS_P1;PMS_P2;Temp;Humidity;BMP_temperature;BMP_pressure;BME280_temperature;BME280_humidity;BME280_pressure;Samples;Min_cycle;Max_cycle;Signal;HPM_P1;HPM_P2
2022/11/23 00:02:14;;;;;;;;;;;8.50;86.80;;;;;;5045474;28;20001;-88
2022/11/23 00:04:39;;;;;;;;;;;8.40;86.60;;;;;;5050038;28;19916;-87
2022/11/23 00:07:05;;;;;;;;;;;8.40;86.50;;;;;;5063731;28;20424;-88
2022/11/23 00:09:30;;;;;;;;;;;8.40;86.70;;;;;;5049522;28;20731;-86
2022/11/23 00:11:56;;;;;;;;;;;8.40;86.50;;;;;;5047027;28;19919;-86
2022/11/23 00:14:21;;;;;;;;;;;8.40;86.80;;;;;;5054431;28;19966;-89
2022/11/23 00:16:47;;;;;;;;;;;8.50;87.00;;;;;;5056035;28;19924;-87
2022/11/23 00:19:12;;;;;;;;;;;8.50;87.00;;;;;;5057016;28;20373;-87
2022/11/23 00:21:38;;;;;;;;;;;8.50;86.80;;;;;;5050781;28;20336;-87
2022/11/23 00:24:03;;;;;;;;;;;8.50;86.50;;;;;;5052900;28;20019;-88
2022/11/23 00:26:29;;;;;;;;;;;8.50;86.70;;;;;;5084880;28;19916;-87
2022/11/23 00:28:54;;;;;;;;;;;8.50;86.50;;;;;;5089713;28;19919;-89
2022/11/23 00:31:20;;;;;;;;;;;8.50;86.20;;;;;;5068028;28;20305;-87
2022/11/23 00:33:50;;;;;;;;;;;8.60;86.10;;;;;;5046231;28;20366;-86
2022/11/23 00:36:16;;;;;;;;;;;8.60;86.20;;;;;;5050982;28;19938;-89
2022/11/23 00:38:42;;;;;;;;;;;8.50;86.10;;;;;;5047769;28;19921;-87
2022/11/23 00:41:09;;;;;;;;;;;8.60;86.00;;;;;;5054293;28;19935;-86
2022/11/23 00:43:34;;;;;;;;;;;8.70;85.50;;;;;;5051723;28;19917;-87
2022/11/23 00:46:07;;;;;;;;;;;8.70;85.50;;;;;;5050763;28;19979;-87
2022/11/23 00:48:33;;;;;;;;;;;8.70;85.40;;;;;;5066682;28;20008;-87
2022/11/23 00:51:00;;;;;;;;;;;8.70;85.10;;;;;;5051257;28;19951;-87
2022/11/23 00:53:25;;;;;;;;;;;8.70;84.80;;;;;;5046087;28;19912;-87
2022/11/23 00:55:52;;;;;;;;;;;8.70;85.00;;;;;;5071597;28;20294;-87
2022/11/23 00:58:17;;;;;;;;;;;8.70;85.10;;;;;;5054229;28;19916;-87
2022/11/23 01:00:43;;;;;;;;;;;8.70;85.10;;;;;;5057451;28;19913;-88
2022/11/23 01:03:08;;;;;;;;;;;8.90;84.40;;;;;;5051446;28;19920;-86
2022/11/23 01:05:38;;;;;;;;;;;8.80;84.60;;;;;;5054837;28;19944;-86
2022/11/23 01:08:04;;;;;;;;;;;8.80;84.60;;;;;;5052823;28;20007;-87
2022/11/23 01:10:29;;;;;;;;;;;8.80;84.80;;;;;;5047934;28;19956;-87
2022/11/23 01:12:55;;;;;;;;;;;8.80;84.80;;;;;;5054056;28;19920;-87
2022/11/23 01:15:20;;;;;;;;;;;8.80;84.40;;;;;;5066970;28;20085;-88
2022/11/23 01:17:46;;;;;;;;;;;8.90;84.00;;;;;;5079990;28;19919;-87
2022/11/23 01:20:11;;;;;;;;;;;8.80;84.20;;;;;;5057168;28;19912;-87
2022/11/23 01:22:37;;;;;;;;;;;8.90;84.60;;;;;;5052897;28;19960;-86
2022/11/23 01:25:02;;;;;;;;;;;9.10;83.30;;;;;;5052379;28;19917;-86
2022/11/23 01:27:28;;;;;;;;;;;9.00;83.40;;;;;;5073117;28;19913;-87
2022/11/23 01:29:53;;;;;;;;;;;8.90;83.80;;;;;;5048937;28;20022;-87
2022/11/23 01:32:19;;;;;;;;;;;8.90;84.00;;;;;;5086255;28;19938;-87
2022/11/23 01:34:44;;;;;;;;;;;8.90;84.00;;;;;;5050787;28;19913;-87
2022/11/23 01:37:09;;;;;;;;;;;8.90;83.90;;;;;;5079782;28;19939;-88
2022/11/23 01:39:35;;;;;;;;;;;9.10;83.50;;;;;;5072641;28;19917;-87
2022/11/23 01:42:00;;;;;;;;;;;9.00;83.70;;;;;;5074748;28;19924;-88
2022/11/23 01:44:30;;;;;;;;;;;8.80;83.90;;;;;;5058647;28;19917;-86
2022/11/23 01:46:59;;;;;;;;;;;8.90;84.80;;;;;;5068453;28;19959;-87
2022/11/23 01:49:26;;;;;;;;;;;9.00;84.80;;;;;;5046323;28;19921;-87
2022/11/23 01:51:54;;;;;;;;;;;8.80;85.40;;;;;;5059813;28;19913;-87
2022/11/23 01:54:29;;;;;;;;;;;8.80;86.00;;;;;;5074651;28;21246;-87
2022/11/23 01:56:57;;;;;;;;;;;8.80;86.50;;;;;;5074058;28;19928;-87
2022/11/23 01:59:24;;;;;;;;;;;8.70;87.10;;;;;;5052951;28;20591;-88
2022/11/23 02:01:49;;;;;;;;;;;8.70;87.10;;;;;;5070876;28;19913;-88
2022/11/23 02:04:18;;;;;;;;;;;8.70;87.20;;;;;;5066802;28;19984;-88
2022/11/23 02:06:45;;;;;;;;;;;8.60;87.50;;;;;;5056651;28;19920;-87
2022/11/23 02:09:11;;;;;;;;;;;8.60;87.70;;;;;;5052560;28;19952;-87
2022/11/23 02:11:36;;;;;;;;;;;8.70;87.90;;;;;;5053032;28;19970;-87
2022/11/23 02:14:02;;;;;;;;;;;8.70;87.90;;;;;;5055480;28;19958;-88
2022/11/23 02:16:28;;;;;;;;;;;8.60;87.90;;;;;;5051812;28;19924;-88
2022/11/23 02:18:53;;;;;;;;;;;8.60;88.30;;;;;;5049400;28;19916;-87
2022/11/23 02:21:19;;;;;;;;;;;8.70;88.10;;;;;;5048551;28;19920;-87
2022/11/23 02:24:06;;;;;;;;;;;8.80;87.90;;;;;;5052987;28;19912;-88
2022/11/23 02:26:33;;;;;;;;;;;8.70;87.60;;;;;;5039421;28;19916;-89
2022/11/23 02:29:01;;;;;;;;;;;8.70;87.90;;;;;;5050526;28;19913;-87
2022/11/23 02:31:27;;;;;;;;;;;8.70;87.50;;;;;;5048384;28;19917;-87
2022/11/23 02:33:52;;;;;;;;;;;8.80;87.10;;;;;;5072859;28;19924;-88
2022/11/23 02:36:24;;;;;;;;;;;8.80;87.20;;;;;;5071993;28;20381;-88
2022/11/23 02:38:49;;;;;;;;;;;8.80;86.60;;;;;;5053500;28;19913;-87
2022/11/23 02:41:15;;;;;;;;;;;8.80;87.00;;;;;;5053512;28;19919;-87
2022/11/23 02:43:40;;;;;;;;;;;8.70;87.00;;;;;;5049756;28;19912;-88
2022/11/23 02:46:06;;;;;;;;;;;8.80;87.00;;;;;;5038505;28;20011;-87
2022/11/23 02:48:32;;;;;;;;;;;8.80;86.90;;;;;;5050843;28;20011;-88
2022/11/23 02:50:57;;;;;;;;;;;8.90;86.80;;;;;;5069485;28;20008;-87
2022/11/23 02:53:22;;;;;;;;;;;8.80;86.60;;;;;;5044519;28;19922;-88
2022/11/23 02:55:48;;;;;;;;;;;8.90;86.90;;;;;;5053305;28;20023;-87
2022/11/23 02:58:13;;;;;;;;;;;8.90;86.30;;;;;;5045197;28;19966;-87
2022/11/23 03:00:39;;;;;;;;;;;8.90;86.00;;;;;;5050423;28;20405;-89
2022/11/23 03:03:05;;;;;;;;;;;9.10;85.10;;;;;;5051563;28;19920;-87
2022/11/23 03:05:30;;;;;;;;;;;9.00;85.20;;;;;;5048344;28;19916;-87
2022/11/23 03:07:55;;;;;;;;;;;9.00;85.30;;;;;;4668744;23;19929;-88
2022/11/23 03:10:21;;;;;;;;;;;8.90;85.40;;;;;;5063138;28;19919;-88
2022/11/23 03:12:47;;;;;;;;;;;9.00;85.30;;;;;;5064492;28;20370;-88
2022/11/23 03:15:12;;;;;;;;;;;9.00;85.20;;;;;;5068728;28;19913;-88
2022/11/23 03:17:38;;;;;;;;;;;9.00;85.50;;;;;;5057817;28;20011;-88
2022/11/23 03:20:03;;;;;;;;;;;9.00;85.70;;;;;;5045461;28;20024;-87
2022/11/23 03:22:29;;;;;;;;;;;9.10;85.00;;;;;;5044416;28;19924;-87
2022/11/23 03:24:56;;;;;;;;;;;9.10;85.10;;;;;;5045708;28;19970;-87
2022/11/23 03:27:24;;;;;;;;;;;9.00;84.90;;;;;;5045311;28;20154;-87
2022/11/23 03:29:49;;;;;;;;;;;9.10;84.90;;;;;;5049451;28;19994;-88
2022/11/23 03:32:14;;;;;;;;;;;9.10;85.10;;;;;;5051999;28;20002;-87
2022/11/23 03:34:40;;;;;;;;;;;9.10;85.40;;;;;;5053963;28;19970;-88
2022/11/23 03:37:05;;;;;;;;;;;9.10;85.00;;;;;;5062303;28;19939;-87
2022/11/23 03:39:31;;;;;;;;;;;9.10;85.40;;;;;;5046639;28;19931;-88
2022/11/23 03:41:57;;;;;;;;;;;9.20;84.90;;;;;;5046829;28;20350;-87
2022/11/23 03:44:22;;;;;;;;;;;9.20;84.60;;;;;;5052539;28;19936;-87
2022/11/23 03:46:49;;;;;;;;;;;9.10;85.50;;;;;;5051546;28;19954;-87
2022/11/23 03:49:15;;;;;;;;;;;9.10;86.30;;;;;;5050241;28;19912;-87
2022/11/23 03:51:40;;;;;;;;;;;8.90;87.00;;;;;;5049786;28;19917;-88
2022/11/23 03:54:06;;;;;;;;;;;8.90;87.20;;;;;;5061056;28;20019;-87
2022/11/23 03:56:31;;;;;;;;;;;8.90;87.20;;;;;;5048243;28;19923;-88
2022/11/23 03:58:56;;;;;;;;;;;8.80;87.70;;;;;;5053499;28;19912;-86
2022/11/23 04:01:22;;;;;;;;;;;8.90;87.80;;;;;;5066928;28;20500;-87
2022/11/23 04:03:47;;;;;;;;;;;8.80;87.90;;;;;;5047134;28;20290;-87
2022/11/23 04:06:13;;;;;;;;;;;8.80;88.30;;;;;;5049923;28;19951;-87
2022/11/23 04:08:38;;;;;;;;;;;8.70;88.40;;;;;;5054782;28;19962;-87
2022/11/23 04:11:04;;;;;;;;;;;8.70;88.80;;;;;;5059663;28;19913;-87
2022/11/23 04:13:29;;;;;;;;;;;8.60;88.80;;;;;;5050223;28;20382;-87
2022/11/23 04:15:54;;;;;;;;;;;8.60;88.90;;;;;;5056427;28;20380;-87
2022/11/23 04:18:20;;;;;;;;;;;8.70;89.20;;;;;;5048978;28;20305;-87
2022/11/23 04:20:45;;;;;;;;;;;8.70;89.10;;;;;;5042325;28;19962;-87
2022/11/23 04:23:11;;;;;;;;;;;8.80;89.00;;;;;;5055238;28;19916;-87
2022/11/23 04:25:36;;;;;;;;;;;8.70;89.00;;;;;;5045440;28;19913;-86
2022/11/23 04:28:02;;;;;;;;;;;8.80;89.10;;;;;;5045223;28;20344;-87
2022/11/23 04:30:27;;;;;;;;;;;8.70;89.10;;;;;;5042267;28;20402;-87
2022/11/23 04:32:52;;;;;;;;;;;8.80;89.00;;;;;;5042757;28;19913;-88
2022/11/23 04:35:18;;;;;;;;;;;8.70;89.00;;;;;;5051769;28;19948;-88
2022/11/23 04:37:44;;;;;;;;;;;8.80;89.20;;;;;;5053969;28;19916;-88
2022/11/23 04:40:09;;;;;;;;;;;8.80;88.80;;;;;;5044896;28;20383;-86
2022/11/23 04:42:35;;;;;;;;;;;8.80;89.10;;;;;;5054803;28;19921;-87
2022/11/23 04:45:00;;;;;;;;;;;8.80;89.00;;;;;;5057639;28;19923;-87
2022/11/23 04:47:26;;;;;;;;;;;8.80;89.10;;;;;;5064496;28;19997;-87
2022/11/23 04:49:51;;;;;;;;;;;8.70;88.90;;;;;;5046427;28;19917;-87
2022/11/23 04:52:17;;;;;;;;;;;8.80;89.10;;;;;;5044155;28;19921;-87
2022/11/23 04:54:42;;;;;;;;;;;8.80;89.00;;;;;;5050372;28;19913;-87
2022/11/23 04:57:08;;;;;;;;;;;8.80;89.00;;;;;;5046432;28;19924;-87
2022/11/23 04:59:34;;;;;;;;;;;8.80;89.00;;;;;;5047022;28;19913;-87
2022/11/23 05:01:59;;;;;;;;;;;8.70;88.80;;;;;;5062880;28;19913;-87
2022/11/23 05:04:25;;;;;;;;;;;8.70;88.60;;;;;;5058139;28;19927;-87
2022/11/23 05:06:50;;;;;;;;;;;8.80;88.80;;;;;;5048903;28;19920;-87
2022/11/23 05:09:16;;;;;;;;;;;8.80;89.00;;;;;;5047891;28;19921;-86
2022/11/23 05:11:41;;;;;;;;;;;8.80;88.60;;;;;;5062457;28;19913;-86
2022/11/23 05:14:07;;;;;;;;;;;8.80;88.80;;;;;;5043029;28;20588;-87
2022/11/23 05:16:32;;;;;;;;;;;8.80;88.90;;;;;;5043186;28;19972;-87
2022/11/23 05:18:58;;;;;;;;;;;8.90;88.80;;;;;;5046147;28;19920;-87
2022/11/23 05:21:23;;;;;;;;;;;8.80;88.70;;;;;;5039154;28;19927;-87
2022/11/23 05:23:48;;;;;;;;;;;8.80;88.90;;;;;;5043559;28;19913;-86
2022/11/23 05:26:14;;;;;;;;;;;8.80;89.00;;;;;;5044711;28;19917;-86
2022/11/23 05:28:39;;;;;;;;;;;8.80;89.00;;;;;;5045692;28;19920;-87
2022/11/23 05:31:05;;;;;;;;;;;8.80;88.80;;;;;;5043608;28;19913;-86
2022/11/23 05:33:33;;;;;;;;;;;8.70;88.70;;;;;;5047758;28;19979;-87
2022/11/23 05:35:58;;;;;;;;;;;8.60;89.10;;;;;;5049805;28;19924;-86
2022/11/23 05:38:24;;;;;;;;;;;8.70;89.20;;;;;;5043293;28;19917;-87
2022/11/23 05:40:49;;;;;;;;;;;8.60;89.20;;;;;;5068891;28;19916;-86
2022/11/23 05:43:15;;;;;;;;;;;8.70;89.40;;;;;;5058297;28;19916;-85
2022/11/23 05:45:40;;;;;;;;;;;8.70;89.40;;;;;;5043329;28;19972;-86
2022/11/23 05:48:06;;;;;;;;;;;8.70;88.80;;;;;;5044725;28;19939;-86
2022/11/23 05:50:31;;;;;;;;;;;8.70;89.10;;;;;;5052342;28;19928;-86
2022/11/23 05:52:57;;;;;;;;;;;8.70;88.90;;;;;;5039501;28;19917;-86
2022/11/23 05:55:23;;;;;;;;;;;8.70;88.60;;;;;;5045117;28;19917;-85
2022/11/23 05:57:48;;;;;;;;;;;8.60;89.00;;;;;;5052251;28;20413;-87
2022/11/23 06:00:14;;;;;;;;;;;8.50;88.70;;;;;;5050107;28;20397;-87
2022/11/23 06:02:41;;;;;;;;;;;8.60;88.70;;;;;;5043390;28;20357;-90
2022/11/23 06:05:06;;;;;;;;;;;8.50;88.60;;;;;;5047975;28;20391;-89
2022/11/23 06:07:32;;;;;;;;;;;8.50;88.80;;;;;;5047766;28;19924;-87
2022/11/23 06:09:58;;;;;;;;;;;8.60;88.10;;;;;;5045067;28;19917;-85
2022/11/23 06:12:23;;;;;;;;;;;8.60;87.90;;;;;;5064510;28;19932;-89
2022/11/23 06:14:49;;;;;;;;;;;8.60;88.20;;;;;;5090327;28;19915;-88
2022/11/23 06:17:14;;;;;;;;;;;8.60;88.00;;;;;;5065183;28;20007;-87
2022/11/23 06:19:40;;;;;;;;;;;8.60;87.90;;;;;;5048007;28;19917;-87
2022/11/23 06:22:05;;;;;;;;;;;8.60;88.00;;;;;;5042721;28;19913;-86
2022/11/23 06:24:31;;;;;;;;;;;8.60;87.80;;;;;;5051653;28;19948;-87
2022/11/23 06:26:56;;;;;;;;;;;8.70;88.00;;;;;;5042036;28;20362;-88
2022/11/23 06:29:21;;;;;;;;;;;8.70;87.80;;;;;;5050309;28;20366;-85
2022/11/23 06:31:47;;;;;;;;;;;8.60;87.50;;;;;;5048127;28;20462;-86
2022/11/23 06:34:12;;;;;;;;;;;8.70;87.50;;;;;;5050168;28;20316;-86
2022/11/23 06:36:38;;;;;;;;;;;8.70;87.40;;;;;;5044186;28;20326;-83
2022/11/23 06:39:04;;;;;;;;;;;8.60;87.60;;;;;;5048171;28;19920;-84
2022/11/23 06:41:29;;;;;;;;;;;8.70;87.80;;;;;;5046885;28;19917;-87
2022/11/23 06:43:55;;;;;;;;;;;8.60;87.40;;;;;;5042391;28;20237;-84
2022/11/23 06:46:20;;;;;;;;;;;8.60;87.70;;;;;;5043927;28;19917;-84
2022/11/23 06:48:46;;;;;;;;;;;8.60;87.90;;;;;;5065373;28;19909;-85
2022/11/23 06:51:11;;;;;;;;;;;8.60;87.90;;;;;;5075605;28;19934;-84
2022/11/23 06:53:37;;;;;;;;;;;8.60;87.90;;;;;;5068625;28;19913;-84
2022/11/23 06:56:03;;;;;;;;;;;8.60;87.80;;;;;;5058654;28;19986;-85
2022/11/23 06:58:28;;;;;;;;;;;8.60;88.10;;;;;;5066756;28;19944;-84
2022/11/23 07:00:58;;;;;;;;;;;8.60;87.90;;;;;;5042073;28;21363;-85
2022/11/23 07:03:23;;;;;;;;;;;8.60;88.30;;;;;;5075260;28;20377;-84
2022/11/23 07:05:49;;;;;;;;;;;8.70;88.30;;;;;;5047228;28;19959;-84
2022/11/23 07:08:14;;;;;;;;;;;8.60;88.00;;;;;;5057010;28;19959;-85
2022/11/23 07:10:40;;;;;;;;;;;8.60;88.00;;;;;;5053986;28;19921;-84
2022/11/23 07:13:07;;;;;;;;;;;8.70;87.90;;;;;;5049835;28;19920;-84
2022/11/23 07:15:32;;;;;;;;;;;8.80;87.70;;;;;;5047561;28;19940;-84
2022/11/23 07:17:58;;;;;;;;;;;8.60;87.70;;;;;;5049292;28;19921;-89
2022/11/23 07:20:24;;;;;;;;;;;8.60;87.60;;;;;;5055631;28;19959;-91
2022/11/23 07:23:00;;;;;;;;;;;8.60;87.50;;;;;;5066981;28;19901;-84
2022/11/23 07:25:26;;;;;;;;;;;8.60;87.80;;;;;;5055427;28;20402;-86
2022/11/23 07:27:55;;;;;;;;;;;8.70;87.50;;;;;;5049766;28;19933;-85
2022/11/23 07:30:21;;;;;;;;;;;8.60;87.40;;;;;;5045796;28;19909;-85
2022/11/23 07:32:46;;;;;;;;;;;8.80;87.60;;;;;;5047833;28;19919;-86
2022/11/23 07:35:12;;;;;;;;;;;8.60;87.30;;;;;;5071260;28;19943;-85
2022/11/23 07:37:37;;;;;;;;;;;8.50;87.50;;;;;;5072123;28;19927;-85
2022/11/23 07:40:03;;;;;;;;;;;8.60;87.70;;;;;;5059977;28;19955;-86
2022/11/23 07:42:28;;;;;;;;;;;8.50;87.70;;;;;;5033762;28;19913;-86
2022/11/23 07:44:54;;;;;;;;;;;8.30;87.60;;;;;;5045784;28;19965;-87
2022/11/23 07:47:19;;;;;;;;;;;8.30;87.80;;;;;;5061946;28;19912;-86
2022/11/23 07:49:45;;;;;;;;;;;8.30;87.70;;;;;;5049792;28;20373;-86
2022/11/23 07:52:10;;;;;;;;;;;8.40;88.10;;;;;;5045760;28;20273;-87
2022/11/23 07:54:35;;;;;;;;;;;8.50;87.50;;;;;;5050554;28;20425;-85
2022/11/23 07:57:01;;;;;;;;;;;8.60;87.10;;;;;;5059347;28;20456;-87
2022/11/23 07:59:26;;;;;;;;;;;8.50;87.00;;;;;;5043999;28;20354;-89
2022/11/23 08:01:52;;;;;;;;;;;8.60;87.10;;;;;;5053449;28;20387;-89
2022/11/23 08:04:17;;;;;;;;;;;8.60;86.50;;;;;;5036521;28;19963;-87
2022/11/23 08:06:43;;;;;;;;;;;8.60;86.50;;;;;;5048000;28;19913;-86
2022/11/23 08:09:08;;;;;;;;;;;8.60;86.40;;;;;;5059011;28;19924;-86
2022/11/23 08:11:33;;;;;;;;;;;8.80;86.40;;;;;;5058377;28;19916;-84
2022/11/23 08:13:59;;;;;;;;;;;8.80;85.80;;;;;;5048420;28;19913;-86
2022/11/23 08:16:24;;;;;;;;;;;8.80;85.60;;;;;;5045150;28;19925;-86
2022/11/23 08:18:50;;;;;;;;;;;8.80;85.80;;;;;;5059268;28;20007;-87
2022/11/23 08:21:15;;;;;;;;;;;9.00;85.40;;;;;;5067201;28;19915;-84
2022/11/23 08:23:41;;;;;;;;;;;9.00;85.40;;;;;;5045140;28;19995;-85
2022/11/23 08:26:07;;;;;;;;;;;9.10;84.70;;;;;;5052284;28;20334;-85
2022/11/23 08:28:32;;;;;;;;;;;9.00;84.10;;;;;;5054280;28;20375;-85
2022/11/23 08:30:58;;;;;;;;;;;9.10;84.00;;;;;;5053247;28;20008;-85
2022/11/23 08:33:24;;;;;;;;;;;9.10;83.70;;;;;;5072584;28;19912;-86
2022/11/23 08:35:49;;;;;;;;;;;9.00;83.80;;;;;;5070317;28;19935;-85
2022/11/23 08:38:14;;;;;;;;;;;9.10;83.10;;;;;;5046864;28;19913;-83
2022/11/23 08:40:40;;;;;;;;;;;9.20;83.40;;;;;;5063368;28;19965;-84
2022/11/23 08:43:05;;;;;;;;;;;9.20;82.80;;;;;;5070497;28;19962;-84
2022/11/23 08:45:31;;;;;;;;;;;9.30;83.00;;;;;;5070051;28;19908;-85
2022/11/23 08:48:00;;;;;;;;;;;9.30;82.80;;;;;;5060385;28;19916;-84
2022/11/23 08:50:25;;;;;;;;;;;9.30;82.60;;;;;;5068841;28;19941;-84
2022/11/23 08:52:54;;;;;;;;;;;9.30;82.00;;;;;;5069902;28;19913;-84
2022/11/23 08:55:20;;;;;;;;;;;9.30;81.40;;;;;;5072491;28;20374;-85
2022/11/23 08:57:45;;;;;;;;;;;9.30;81.20;;;;;;5071661;28;19912;-84
2022/11/23 09:00:13;;;;;;;;;;;9.30;80.80;;;;;;5073899;28;21245;-85
2022/11/23 09:02:38;;;;;;;;;;;9.30;80.20;;;;;;5082841;28;19989;-84
2022/11/23 09:05:05;;;;;;;;;;;9.40;80.90;;;;;;5081629;28;19920;-85
2022/11/23 09:09:59;;;;;;;;;;;9.30;80.80;;;;;;5064152;28;20431;-77
2022/11/23 09:12:24;;;;;;;;;;;9.30;80.70;;;;;;5054750;28;19920;-80
2022/11/23 09:14:49;;;;;;;;;;;9.30;80.50;;;;;;5064592;28;19912;-78
2022/11/23 09:17:15;;;;;;;;;;;9.30;80.20;;;;;;5031985;28;20454;-81
2022/11/23 09:19:40;;;;;;;;;;;9.20;80.10;;;;;;5041161;28;20296;-80
2022/11/23 09:22:06;;;;;;;;;;;9.30;79.50;;;;;;5016166;28;19909;-78
2022/11/23 09:24:31;;;;;;;;;;;9.30;79.40;;;;;;5033828;28;19948;-81
2022/11/23 09:26:57;;;;;;;;;;;9.30;80.10;;;;;;5035882;28;19909;-80
2022/11/23 09:29:24;;;;;;;;;;;9.40;80.20;;;;;;5025874;28;20313;-80
2022/11/23 09:31:49;;;;;;;;;;;9.40;79.70;;;;;;5038240;28;19920;-81
2022/11/23 09:34:15;;;;;;;;;;;9.50;79.50;;;;;;5040398;28;19917;-81
2022/11/23 09:36:40;;;;;;;;;;;9.50;78.30;;;;;;5055683;28;19921;-79
2022/11/23 09:39:07;;;;;;;;;;;9.50;78.40;;;;;;5056760;28;19925;-80
2022/11/23 09:41:50;;;;;;;;;;;9.40;78.40;;;;;;5044373;28;19909;-79
2022/11/23 09:44:34;;;;;;;;;;;9.40;78.20;;;;;;5051318;28;19913;-81
2022/11/23 09:47:12;;;;;;;;;;;9.50;78.80;;;;;;5046721;28;19931;-80
2022/11/23 09:49:43;;;;;;;;;;;9.60;78.10;;;;;;5056243;28;19966;-81
2022/11/23 09:52:19;;;;;;;;;;;9.50;78.30;;;;;;5047431;28;20372;-80
2022/11/23 09:54:45;;;;;;;;;;;9.50;77.60;;;;;;5056336;28;20241;-80
2022/11/23 09:57:14;;;;;;;;;;;9.50;78.60;;;;;;5057054;28;19913;-79
2022/11/23 09:59:46;;;;;;;;;;;9.60;78.30;;;;;;5038945;28;19964;-82
2022/11/23 10:02:22;;;;;;;;;;;9.70;78.10;;;;;;5042391;28;19913;-79
2022/11/23 10:04:49;;;;;;;;;;;9.70;77.20;;;;;;5039323;28;19916;-82
2022/11/23 10:07:17;;;;;;;;;;;9.80;76.30;;;;;;5035761;28;19910;-82
2022/11/23 10:09:43;;;;;;;;;;;9.70;76.70;;;;;;5034372;28;19921;-81
2022/11/23 10:12:15;;;;;;;;;;;9.80;77.20;;;;;;5037329;28;19936;-82
2022/11/23 10:14:52;;;;;;;;;;;10.00;76.70;;;;;;5040864;28;19913;-80
2022/11/23 10:17:24;;;;;;;;;;;9.90;75.90;;;;;;5038111;28;19913;-80
2022/11/23 10:19:52;;;;;;;;;;;10.00;76.60;;;;;;5039670;28;20452;-82
2022/11/23 10:22:23;;;;;;;;;;;10.00;76.40;;;;;;5055690;28;20167;-82
2022/11/23 10:24:51;;;;;;;;;;;10.00;75.80;;;;;;5059450;28;19925;-82
2022/11/23 10:27:17;;;;;;;;;;;10.10;75.40;;;;;;5059125;28;19916;-81
2022/11/23 10:29:43;;;;;;;;;;;10.00;75.40;;;;;;5060285;28;20157;-83
2022/11/23 10:32:21;;;;;;;;;;;10.10;75.80;;;;;;5041958;28;19928;-81
2022/11/23 10:34:59;;;;;;;;;;;10.00;75.20;;;;;;5033338;28;20390;-79
2022/11/23 10:37:25;;;;;;;;;;;9.90;74.40;;;;;;5030684;28;19913;-79
2022/11/23 10:39:50;;;;;;;;;;;9.90;74.40;;;;;;5051976;28;20226;-81
2022/11/23 10:42:24;;;;;;;;;;;9.90;73.10;;;;;;5051827;28;19912;-81
2022/11/23 10:44:51;;;;;;;;;;;9.90;73.60;;;;;;5051698;28;20336;-81
2022/11/23 10:47:39;;;;;;;;;;;9.90;74.10;;;;;;5051906;28;19963;-81
2022/11/23 10:50:22;;;;;;;;;;;9.90;74.40;;;;;;5028134;28;19917;-80
2022/11/23 10:52:52;;;;;;;;;;;9.90;72.90;;;;;;5034147;28;19921;-81
2022/11/23 10:55:21;;;;;;;;;;;9.80;74.00;;;;;;5053328;28;19920;-80
2022/11/23 10:57:46;;;;;;;;;;;9.90;73.90;;;;;;5052806;28;19928;-82
2022/11/23 11:00:12;;;;;;;;;;;9.90;72.20;;;;;;5055310;28;19931;-82
2022/11/23 11:02:39;;;;;;;;;;;9.90;71.90;;;;;;5050339;28;19913;-80
2022/11/23 11:05:25;;;;;;;;;;;9.80;72.30;;;;;;5049109;28;19942;-81
2022/11/23 11:07:51;;;;;;;;;;;10.00;73.20;;;;;;5029701;28;19913;-82
2022/11/23 11:10:37;;;;;;;;;;;9.90;72.70;;;;;;5038917;28;20372;-82
2022/11/23 11:13:02;;;;;;;;;;;9.90;72.90;;;;;;5051274;28;19908;-81
2022/11/23 11:15:28;;;;;;;;;;;9.90;72.80;;;;;;5047985;28;20420;-81
2022/11/23 11:17:57;;;;;;;;;;;9.80;73.10;;;;;;5033589;28;19920;-80
2022/11/23 11:20:22;;;;;;;;;;;9.90;73.90;;;;;;5033013;28;19909;-81
2022/11/23 11:22:48;;;;;;;;;;;10.00;72.60;;;;;;5034257;28;19913;-80
2022/11/23 11:25:32;;;;;;;;;;;9.90;70.80;;;;;;5017668;28;20389;-80
2022/11/23 11:27:58;;;;;;;;;;;9.90;70.60;;;;;;5035980;28;19956;-81
2022/11/23 11:30:26;;;;;;;;;;;9.90;71.50;;;;;;5040882;28;20471;-81
2022/11/23 11:32:57;;;;;;;;;;;9.90;70.70;;;;;;5032454;28;19913;-83
2022/11/23 11:35:27;;;;;;;;;;;10.00;69.90;;;;;;5035078;28;19909;-81
2022/11/23 11:37:56;;;;;;;;;;;10.00;69.90;;;;;;5034317;28;19967;-80
2022/11/23 11:40:30;;;;;;;;;;;10.00;69.60;;;;;;5047793;28;20435;-79
2022/11/23 11:42:58;;;;;;;;;;;10.10;69.70;;;;;;5054975;28;20387;-80
2022/11/23 11:45:25;;;;;;;;;;;10.20;69.10;;;;;;5046298;28;20475;-79
2022/11/23 11:48:00;;;;;;;;;;;10.10;69.10;;;;;;5033833;28;19956;-79
2022/11/23 11:50:28;;;;;;;;;;;10.10;70.50;;;;;;5034811;28;19913;-80
2022/11/23 11:52:57;;;;;;;;;;;10.10;70.70;;;;;;5034559;28;19939;-78
2022/11/23 11:55:35;;;;;;;;;;;10.00;70.80;;;;;;5031259;28;19962;-79
2022/11/23 11:58:08;;;;;;;;;;;10.00;70.30;;;;;;5033271;28;20007;-79
2022/11/23 12:00:35;;;;;;;;;;;10.10;70.70;;;;;;5053593;28;19912;-79
2022/11/23 12:03:11;;;;;;;;;;;10.10;69.30;;;;;;5053556;28;20280;-79
2022/11/23 12:05:36;;;;;;;;;;;10.10;68.80;;;;;;5053292;28;19990;-80
2022/11/23 12:08:20;;;;;;;;;;;10.10;69.90;;;;;;5052678;28;19920;-80
2022/11/23 12:10:49;;;;;;;;;;;10.10;70.40;;;;;;5037798;28;19917;-80
2022/11/23 12:13:16;;;;;;;;;;;10.10;69.70;;;;;;5032335;28;19917;-79
2022/11/23 12:15:45;;;;;;;;;;;10.20;70.60;;;;;;5032715;28;20444;-80
2022/11/23 12:18:28;;;;;;;;;;;10.10;69.60;;;;;;5034101;28;19913;-78
2022/11/23 12:21:04;;;;;;;;;;;10.20;69.40;;;;;;5045740;28;20280;-80
2022/11/23 12:23:52;;;;;;;;;;;10.20;68.90;;;;;;5050711;28;20469;-79
2022/11/23 12:26:32;;;;;;;;;;;10.10;69.50;;;;;;5052874;28;19934;-79
2022/11/23 12:29:07;;;;;;;;;;;10.10;69.30;;;;;;5049938;28;19913;-79
2022/11/23 12:31:38;;;;;;;;;;;10.00;69.70;;;;;;5046720;28;19920;-81
2022/11/23 12:34:09;;;;;;;;;;;9.90;69.80;;;;;;5039256;28;19913;-80
2022/11/23 12:36:40;;;;;;;;;;;9.90;70.20;;;;;;5017309;28;19922;-80
2022/11/23 12:39:11;;;;;;;;;;;10.00;70.10;;;;;;5022836;28;20008;-80
2022/11/23 12:41:43;;;;;;;;;;;10.10;70.60;;;;;;5050449;28;19996;-83
2022/11/23 12:44:41;;;;;;;;;;;10.00;70.40;;;;;;5035018;28;19919;-83
2022/11/23 12:47:14;;;;;;;;;;;10.10;69.90;;;;;;5010033;28;19921;-84
2022/11/23 12:49:40;;;;;;;;;;;10.10;69.00;;;;;;5029923;28;19928;-85
2022/11/23 12:52:14;;;;;;;;;;;10.20;67.40;;;;;;5050290;28;19908;-88
2022/11/23 12:54:54;;;;;;;;;;;10.10;67.10;;;;;;5050493;28;19932;-85
2022/11/23 12:57:22;;;;;;;;;;;10.10;68.10;;;;;;5033254;28;19916;-85
2022/11/23 12:59:59;;;;;;;;;;;10.10;68.60;;;;;;5031625;28;19970;-85
2022/11/23 13:02:37;;;;;;;;;;;10.00;68.10;;;;;;5047697;28;19913;-83
2022/11/23 13:05:21;;;;;;;;;;;10.10;68.30;;;;;;5043130;28;19919;-86
2022/11/23 13:07:52;;;;;;;;;;;10.10;68.30;;;;;;5032833;28;19924;-85
2022/11/23 13:10:32;;;;;;;;;;;10.10;68.50;;;;;;5041702;28;20271;-86
2022/11/23 13:12:57;;;;;;;;;;;10.10;68.80;;;;;;5071115;28;19970;-85
2022/11/23 13:15:41;;;;;;;;;;;10.10;68.60;;;;;;5059500;28;20399;-84
2022/11/23 13:18:25;;;;;;;;;;;10.00;69.10;;;;;;5044412;28;19920;-83
2022/11/23 13:21:04;;;;;;;;;;;10.00;69.60;;;;;;5044605;28;20284;-81
2022/11/23 13:23:38;;;;;;;;;;;10.00;69.50;;;;;;5030669;28;19921;-82
2022/11/23 13:26:11;;;;;;;;;;;10.10;69.00;;;;;;5031555;28;20447;-82
2022/11/23 13:28:36;;;;;;;;;;;10.00;68.90;;;;;;5035842;28;19948;-84
2022/11/23 13:31:22;;;;;;;;;;;10.00;69.90;;;;;;5025162;28;19952;-84
2022/11/23 13:33:48;;;;;;;;;;;10.00;69.30;;;;;;5045798;28;19952;-83
2022/11/23 13:36:29;;;;;;;;;;;9.90;69.30;;;;;;5038196;28;19928;-82
2022/11/23 13:38:55;;;;;;;;;;;9.90;68.70;;;;;;5050762;28;19924;-84
2022/11/23 13:41:33;;;;;;;;;;;9.90;69.50;;;;;;5032641;28;19909;-83
2022/11/23 13:44:17;;;;;;;;;;;9.90;68.60;;;;;;5038738;28;19913;-83
2022/11/23 13:46:43;;;;;;;;;;;9.90;67.90;;;;;;5049665;28;19967;-84
2022/11/23 13:49:27;;;;;;;;;;;9.90;68.00;;;;;;5029592;28;20365;-85
2022/11/23 13:52:27;;;;;;;;;;;9.80;69.70;;;;;;5040989;28;19919;-82
2022/11/23 13:54:59;;;;;;;;;;;9.80;68.90;;;;;;5000886;28;20396;-84
2022/11/23 13:57:24;;;;;;;;;;;9.80;68.80;;;;;;5053761;28;20347;-83
2022/11/23 13:59:50;;;;;;;;;;;9.80;68.40;;;;;;5038763;28;19921;-85
2022/11/23 14:02:15;;;;;;;;;;;9.80;67.60;;;;;;5047712;28;19917;-84
2022/11/23 14:04:42;;;;;;;;;;;9.80;68.00;;;;;;5044218;28;20385;-85
2022/11/23 14:07:14;;;;;;;;;;;9.70;68.30;;;;;;5041552;28;19955;-84
2022/11/23 14:09:44;;;;;;;;;;;9.70;68.70;;;;;;5055484;28;19960;-83
2022/11/23 14:12:10;;;;;;;;;;;9.70;68.70;;;;;;5056171;28;19915;-85
2022/11/23 14:14:41;;;;;;;;;;;9.70;68.90;;;;;;5051959;28;20023;-83
2022/11/23 14:17:25;;;;;;;;;;;9.60;68.80;;;;;;5054993;28;19917;-84
2022/11/23 14:20:03;;;;;;;;;;;9.60;69.00;;;;;;5042389;28;19975;-85
2022/11/23 14:22:35;;;;;;;;;;;9.60;69.30;;;;;;5057903;28;19909;-83
2022/11/23 14:25:01;;;;;;;;;;;9.60;69.70;;;;;;5057893;28;20264;-83
2022/11/23 14:27:29;;;;;;;;;;;9.50;69.20;;;;;;5056215;28;19908;-83
2022/11/23 14:30:05;;;;;;;;;;;9.50;69.30;;;;;;5050389;28;19913;-84
2022/11/23 14:32:47;;;;;;;;;;;9.40;70.20;;;;;;5040180;28;19909;-83
2022/11/23 14:35:22;;;;;;;;;;;9.40;70.40;;;;;;5028822;28;19913;-84
2022/11/23 14:38:06;;;;;;;;;;;9.50;69.50;;;;;;5041327;28;19932;-84